Time,TemperatureF,DewpointF,PressureIn,WindDirection,WindDirectionDegrees,WindSpeedMPH,WindSpeedGustMPH,Humidity,HourlyPrecipIn,Conditions,Clouds,dailyrainin,SoftwareType,DateUTC
2013-03-08 00:05:00,31.9,31.3,29.93,NNE,27,5.1,8.0,96,-99.99,,,-99.99,PWS SA v1.10,2013-03-08 05:05:00,
2013-03-08 00:10:00,31.9,31.4,29.93,North,9,1.7,8.0,96,-99.99,,,-99.99,PWS SA v1.10,2013-03-08 05:10:00,
2013-03-08 00:15:00,31.8,31.1,29.93,NNE,33,15.4,15.4,96,-99.99,,,-99.99,PWS SA v1.10,2013-03-08 05:15:00,
2013-03-08 00:20:00,31.9,30.9,29.93,ENE,74,8.5,15.0,95,-99.99,,,-99.99,PWS SA v1.10,2013-03-08 05:20:00,
2013-03-08 00:25:00,32.1,31.1,29.93,NNW,346,8.5,15.0,96,-99.99,,,-99.99,PWS SA v1.10,2013-03-08 05:25:00,
2013-03-08 00:30:00,31.8,31.2,29.93,NNE,17,3.4,8.0,96,-99.99,,,-99.99,PWS SA v1.10,2013-03-08 05:30:00,
2013-03-08 00:35:00,31.8,31.3,29.93,ENE,58,1.7,12.0,96,-99.99,,,-99.99,PWS SA v1.10,2013-03-08 05:35:00,
2013-03-08 00:40:00,31.6,31.6,29.93,North,351,3.4,12.0,97,-99.99,,,-99.99,PWS SA v1.10,2013-03-08 05:40:00,
2013-03-08 00:45:00,31.7,31.5,29.93,North,5,3.4,12.0,97,-99.99,,,-99.99,PWS SA v1.10,2013-03-08 05:45:00,
2013-03-08 00:50:00,31.8,31.4,29.93,North,0,0.0,8.0,97,-99.99,,,-99.99,PWS SA v1.10,2013-03-08 05:50:00,
2013-03-08 00:55:00,31.8,31.7,29.93,NE,51,5.1,5.1,97,-99.99,,,-99.99,PWS SA v1.10,2013-03-08 05:55:00,
2013-03-08 01:00:00,31.7,31.4,29.92,North,11,5.1,5.1,97,-99.99,,,-99.99,PWS SA v1.10,2013-03-08 06:00:00,
2013-03-08 01:05:00,31.8,31.6,29.93,NNE,31,6.8,6.8,97,-99.99,,,-99.99,PWS SA v1.10,2013-03-08 06:05:00,
2013-03-08 01:15:00,31.9,31.6,29.92,North,0,0.0,6.0,97,-99.99,,,-99.99,PWS SA v1.10,2013-03-08 06:15:00,
2013-03-08 01:20:00,31.9,31.6,29.92,North,0,0.0,5.0,97,-99.99,,,-99.99,PWS SA v1.10,2013-03-08 06:20:00,
2013-03-08 01:30:00,31.6,31.2,29.92,NNE,22,3.4,5.0,97,-99.99,,,-99.99,PWS SA v1.10,2013-03-08 06:30:00,
2013-03-08 01:35:00,31.4,31.2,29.92,NNE,29,3.4,10.0,97,-99.99,,,-99.99,PWS SA v1.10,2013-03-08 06:35:00,
2013-03-08 01:40:00,31.6,31.4,29.92,NNE,33,5.1,10.0,97,-99.99,,,-99.99,PWS SA v1.10,2013-03-08 06:40:00,
2013-03-08 01:45:00,31.7,31.4,29.91,NE,46,3.4,10.0,97,-99.99,,,-99.99,PWS SA v1.10,2013-03-08 06:45:00,
2013-03-08 01:55:00,31.3,31.2,29.91,NNE,22,3.4,10.0,98,-99.99,,,-99.99,PWS SA v1.10,2013-03-08 06:55:00,
2013-03-08 02:05:00,31.3,31.1,29.91,NE,39,5.1,8.0,98,-99.99,,,-99.99,PWS SA v1.10,2013-03-08 07:05:00,
2013-03-08 02:15:00,31.2,30.9,29.91,NE,45,3.4,6.0,98,-99.99,,,-99.99,PWS SA v1.10,2013-03-08 07:15:00,
2013-03-08 02:20:00,31.2,31.1,29.90,NNE,15,1.7,5.0,98,-99.99,,,-99.99,PWS SA v1.10,2013-03-08 07:20:00,
2013-03-08 02:25:00,31.1,30.8,29.90,North,11,6.8,6.8,98,-99.99,,,-99.99,PWS SA v1.10,2013-03-08 07:25:00,
2013-03-08 02:35:00,31.2,31.2,29.90,NE,40,5.1,13.0,98,-99.99,,,-99.99,PWS SA v1.10,2013-03-08 07:35:00,
2013-03-08 02:40:00,31.3,31.4,29.90,NNE,28,5.1,13.0,98,-99.99,,,-99.99,PWS SA v1.10,2013-03-08 07:40:00,
2013-03-08 02:45:00,31.1,30.8,29.89,NE,37,3.4,8.0,98,-99.99,,,-99.99,PWS SA v1.10,2013-03-08 07:45:00,
2013-03-08 02:50:00,31.3,31.2,29.89,NE,52,3.4,12.0,98,-99.99,,,-99.99,PWS SA v1.10,2013-03-08 07:50:00,
2013-03-08 02:55:00,31.4,30.9,29.89,ENE,69,5.1,12.0,98,-99.99,,,-99.99,PWS SA v1.10,2013-03-08 07:55:00,
2013-03-08 03:05:00,31.3,31.1,29.89,NNE,32,5.1,8.0,98,-99.99,,,-99.99,PWS SA v1.10,2013-03-08 08:05:00,
2013-03-08 03:10:00,31.2,31.0,29.89,NNE,28,5.1,10.0,98,-99.99,,,-99.99,PWS SA v1.10,2013-03-08 08:10:00,
2013-03-08 03:15:00,31.3,31.1,29.89,NNE,17,1.7,10.0,97,-99.99,,,-99.99,PWS SA v1.10,2013-03-08 08:15:00,
2013-03-08 03:20:00,31.4,30.9,29.89,NNE,24,3.4,10.0,97,-99.99,,,-99.99,PWS SA v1.10,2013-03-08 08:20:00,
2013-03-08 03:25:00,31.4,30.9,29.89,NNE,12,6.8,6.8,97,-99.99,,,-99.99,PWS SA v1.10,2013-03-08 08:25:00,
2013-03-08 03:30:00,31.1,31.0,29.89,North,7,5.1,6.0,97,-99.99,,,-99.99,PWS SA v1.10,2013-03-08 08:30:00,
2013-03-08 03:35:00,30.9,30.8,29.89,NE,45,5.1,10.0,98,-99.99,,,-99.99,PWS SA v1.10,2013-03-08 08:35:00,
2013-03-08 03:40:00,31.4,31.1,29.89,NNE,21,5.1,10.0,98,-99.99,,,-99.99,PWS SA v1.10,2013-03-08 08:40:00,
2013-03-08 03:45:00,31.2,31.0,29.89,NNE,28,5.1,10.0,98,-99.99,,,-99.99,PWS SA v1.10,2013-03-08 08:45:00,
2013-03-08 03:50:00,31.3,31.3,29.89,NNE,25,3.4,6.0,98,-99.99,,,-99.99,PWS SA v1.10,2013-03-08 08:50:00,
2013-03-08 04:00:00,31.3,31.0,29.89,NNE,17,8.5,8.5,97,-99.99,,,-99.99,PWS SA v1.10,2013-03-08 09:00:00,
2013-03-08 04:05:00,31.4,31.1,29.89,NNE,32,1.7,8.0,98,-99.99,,,-99.99,PWS SA v1.10,2013-03-08 09:05:00,
2013-03-08 04:15:00,31.1,30.7,29.89,NE,37,3.4,8.0,98,-99.99,,,-99.99,PWS SA v1.10,2013-03-08 09:15:00,
2013-03-08 04:20:00,31.2,31.1,29.89,NNE,20,6.8,8.0,98,-99.99,,,-99.99,PWS SA v1.10,2013-03-08 09:20:00,
2013-03-08 04:25:00,31.4,31.4,29.88,North,9,1.7,6.0,98,-99.99,,,-99.99,PWS SA v1.10,2013-03-08 09:25:00,
2013-03-08 04:35:00,31.1,30.6,29.89,SW,235,6.8,8.0,98,-99.99,,,-99.99,PWS SA v1.10,2013-03-08 09:35:00,
2013-03-08 04:40:00,31.1,30.8,29.89,NNW,344,3.4,8.0,98,-99.99,,,-99.99,PWS SA v1.10,2013-03-08 09:40:00,
2013-03-08 04:50:00,31.3,30.9,29.88,NNE,19,5.1,8.0,98,-99.99,,,-99.99,PWS SA v1.10,2013-03-08 09:50:00,
2013-03-08 04:55:00,31.2,31.0,29.87,North,354,6.8,8.0,98,-99.99,,,-99.99,PWS SA v1.10,2013-03-08 09:55:00,
2013-03-08 05:00:00,30.9,30.7,29.88,NNE,24,5.1,6.0,98,-99.99,,,-99.99,PWS SA v1.10,2013-03-08 10:00:00,
2013-03-08 05:05:00,31.2,31.0,29.88,North,11,3.4,6.0,98,-99.99,,,-99.99,PWS SA v1.10,2013-03-08 10:05:00,
2013-03-08 05:10:00,30.9,30.3,29.89,ENE,65,6.8,6.8,97,-99.99,,,-99.99,PWS SA v1.10,2013-03-08 10:10:00,
2013-03-08 05:15:00,31.4,31.0,29.89,North,356,3.4,6.0,98,-99.99,,,-99.99,PWS SA v1.10,2013-03-08 10:15:00,
2013-03-08 05:20:00,31.1,30.8,29.89,NE,54,5.1,12.0,98,-99.99,,,-99.99,PWS SA v1.10,2013-03-08 10:20:00,
2013-03-08 05:25:00,31.3,31.1,29.89,NNE,28,3.4,12.0,98,-99.99,,,-99.99,PWS SA v1.10,2013-03-08 10:25:00,
2013-03-08 05:30:00,30.9,30.5,29.89,NNW,341,5.1,13.0,98,-99.99,,,-99.99,PWS SA v1.10,2013-03-08 10:30:00,
2013-03-08 05:35:00,31.2,30.7,29.89,NE,41,5.1,13.0,98,-99.99,,,-99.99,PWS SA v1.10,2013-03-08 10:35:00,
2013-03-08 05:40:00,31.1,30.9,29.88,North,7,3.4,13.0,98,-99.99,,,-99.99,PWS SA v1.10,2013-03-08 10:40:00,
2013-03-08 05:45:00,31.3,31.2,29.89,North,363,3.4,6.0,98,-99.99,,,-99.99,PWS SA v1.10,2013-03-08 10:45:00,
2013-03-08 05:50:00,31.2,31.0,29.89,NNE,14,3.4,6.0,98,-99.99,,,-99.99,PWS SA v1.10,2013-03-08 10:50:00,
2013-03-08 05:55:00,30.9,30.8,29.89,NNE,28,1.7,6.0,98,-99.99,,,-99.99,PWS SA v1.10,2013-03-08 10:55:00,
2013-03-08 06:00:00,31.1,31.0,29.89,NNE,24,3.4,6.0,98,-99.99,,,-99.99,PWS SA v1.10,2013-03-08 11:00:00,
2013-03-08 06:05:00,30.7,30.7,29.89,North,361,5.1,6.0,98,-99.99,,,-99.99,PWS SA v1.10,2013-03-08 11:05:00,
2013-03-08 06:10:00,31.0,31.0,29.89,NNE,25,3.4,6.0,99,-99.99,,,-99.99,PWS SA v1.10,2013-03-08 11:10:00,
2013-03-08 06:15:00,31.1,31.1,29.90,NNE,27,3.4,6.0,99,-99.99,,,-99.99,PWS SA v1.10,2013-03-08 11:15:00,
2013-03-08 06:20:00,31.2,31.3,29.90,NE,42,3.4,6.0,99,-99.99,,,-99.99,PWS SA v1.10,2013-03-08 11:20:00,
2013-03-08 06:25:00,30.8,30.8,29.89,NNE,15,1.7,10.0,98,-99.99,,,-99.99,PWS SA v1.10,2013-03-08 11:25:00,
2013-03-08 06:30:00,30.9,31.0,29.90,NNE,27,6.8,10.0,99,-99.99,,,-99.99,PWS SA v1.10,2013-03-08 11:30:00,
2013-03-08 06:35:00,30.9,30.9,29.89,NNE,22,6.8,10.0,99,-99.99,,,-99.99,PWS SA v1.10,2013-03-08 11:35:00,
2013-03-08 06:40:00,30.9,31.0,29.90,North,10,3.4,8.0,99,-99.99,,,-99.99,PWS SA v1.10,2013-03-08 11:40:00,
2013-03-08 06:45:00,31.0,31.0,29.90,NNE,14,6.8,8.0,99,-99.99,,,-99.99,PWS SA v1.10,2013-03-08 11:45:00,
2013-03-08 06:50:00,30.8,31.0,29.90,NNE,28,3.4,15.0,99,-99.99,,,-99.99,PWS SA v1.10,2013-03-08 11:50:00,
2013-03-08 06:55:00,30.9,31.1,29.90,North,356,8.5,15.0,99,-99.99,,,-99.99,PWS SA v1.10,2013-03-08 11:55:00,
2013-03-08 07:00:00,30.8,31.0,29.90,NNE,18,3.4,15.0,99,-99.99,,,-99.99,PWS SA v1.10,2013-03-08 12:00:00,
2013-03-08 07:10:00,30.7,30.9,29.90,North,359,3.4,8.0,99,-99.99,,,-99.99,PWS SA v1.10,2013-03-08 12:10:00,
2013-03-08 07:15:00,30.6,30.9,29.90,ENE,69,6.8,8.0,99,-99.99,,,-99.99,PWS SA v1.10,2013-03-08 12:15:00,
2013-03-08 07:20:00,31.1,31.1,29.91,North,356,3.4,8.0,99,-99.99,,,-99.99,PWS SA v1.10,2013-03-08 12:20:00,
2013-03-08 07:25:00,30.5,30.7,29.90,NNE,25,5.1,6.0,99,-99.99,,,-99.99,PWS SA v1.10,2013-03-08 12:25:00,
2013-03-08 07:30:00,30.5,31.0,29.91,NNE,24,5.1,12.0,99,-99.99,,,-99.99,PWS SA v1.10,2013-03-08 12:30:00,
2013-03-08 07:35:00,30.7,30.9,29.91,NNE,17,5.1,12.0,99,-99.99,,,-99.99,PWS SA v1.10,2013-03-08 12:35:00,
2013-03-08 07:40:00,31.1,31.0,29.91,North,0,0.0,12.0,99,-99.99,,,-99.99,PWS SA v1.10,2013-03-08 12:40:00,
2013-03-08 07:45:00,31.0,31.0,29.91,NE,36,3.4,6.0,99,-99.99,,,-99.99,PWS SA v1.10,2013-03-08 12:45:00,
2013-03-08 07:50:00,30.9,30.9,29.91,NNW,340,3.4,12.0,99,-99.99,,,-99.99,PWS SA v1.10,2013-03-08 12:50:00,
2013-03-08 07:55:00,30.7,30.7,29.90,NNE,27,5.1,12.0,99,-99.99,,,-99.99,PWS SA v1.10,2013-03-08 12:55:00,
2013-03-08 08:00:00,31.0,31.2,29.91,NNE,15,3.4,12.0,99,-99.99,,,-99.99,PWS SA v1.10,2013-03-08 13:00:00,
2013-03-08 08:05:00,31.2,31.0,29.91,North,360,1.7,12.0,99,-99.99,,,-99.99,PWS SA v1.10,2013-03-08 13:05:00,
2013-03-08 08:10:00,31.0,31.1,29.91,NNW,345,3.4,12.0,99,-99.99,,,-99.99,PWS SA v1.10,2013-03-08 13:10:00,
2013-03-08 08:15:00,30.9,31.0,29.91,ENE,58,6.8,12.0,99,-99.99,,,-99.99,PWS SA v1.10,2013-03-08 13:15:00,
2013-03-08 08:20:00,30.8,30.6,29.90,NE,47,8.5,13.0,98,-99.99,,,-99.99,PWS SA v1.10,2013-03-08 13:20:00,
2013-03-08 08:25:00,30.9,30.9,29.91,NNW,333,5.1,13.0,98,-99.99,,,-99.99,PWS SA v1.10,2013-03-08 13:25:00,
2013-03-08 08:30:00,31.1,31.0,29.91,NNE,30,5.1,13.0,98,-99.99,,,-99.99,PWS SA v1.10,2013-03-08 13:30:00,
2013-03-08 08:35:00,31.3,31.2,29.91,NE,41,3.4,8.0,98,-99.99,,,-99.99,PWS SA v1.10,2013-03-08 13:35:00,
2013-03-08 08:40:00,31.1,30.8,29.90,NE,43,5.1,8.0,98,-99.99,,,-99.99,PWS SA v1.10,2013-03-08 13:40:00,
2013-03-08 08:45:00,31.0,30.6,29.90,North,359,3.4,12.0,98,-99.99,,,-99.99,PWS SA v1.10,2013-03-08 13:45:00,
2013-03-08 08:50:00,31.2,30.9,29.91,NNE,14,3.4,12.0,98,-99.99,,,-99.99,PWS SA v1.10,2013-03-08 13:50:00,
2013-03-08 08:55:00,31.3,31.2,29.90,North,352,3.4,12.0,98,-99.99,,,-99.99,PWS SA v1.10,2013-03-08 13:55:00,
2013-03-08 09:00:00,31.3,30.9,29.91,NE,51,5.1,10.0,97,-99.99,,,-99.99,PWS SA v1.10,2013-03-08 14:00:00,
2013-03-08 09:05:00,30.8,30.2,29.90,NNE,16,12.0,12.0,97,-99.99,,,-99.99,PWS SA v1.10,2013-03-08 14:05:00,
2013-03-08 09:10:00,31.1,30.7,29.91,NE,43,3.4,12.0,97,-99.99,,,-99.99,PWS SA v1.10,2013-03-08 14:10:00,
2013-03-08 09:15:00,30.9,30.5,29.91,North,7,8.5,12.0,97,-99.99,,,-99.99,PWS SA v1.10,2013-03-08 14:15:00,
2013-03-08 09:20:00,31.1,30.7,29.91,NNE,24,5.1,12.0,97,-99.99,,,-99.99,PWS SA v1.10,2013-03-08 14:20:00,
2013-03-08 09:25:00,31.1,30.5,29.91,NE,37,6.8,8.0,97,-99.99,,,-99.99,PWS SA v1.10,2013-03-08 14:25:00,
2013-03-08 09:30:00,31.3,30.7,29.92,ESE,104,8.5,8.5,97,-99.99,,,-99.99,PWS SA v1.10,2013-03-08 14:30:00,
2013-03-08 09:35:00,31.3,30.6,29.93,NNE,33,10.2,10.2,97,-99.99,,,-99.99,PWS SA v1.10,2013-03-08 14:35:00,
2013-03-08 09:45:00,31.4,31.0,29.93,NNE,28,3.4,10.0,96,-99.99,,,-99.99,PWS SA v1.10,2013-03-08 14:45:00,
2013-03-08 09:50:00,31.4,30.7,29.93,NE,42,8.5,8.5,96,-99.99,,,-99.99,PWS SA v1.10,2013-03-08 14:50:00,
2013-03-08 10:00:00,31.4,30.5,29.92,NE,48,5.1,13.0,96,-99.99,,,-99.99,PWS SA v1.10,2013-03-08 15:00:00,
2013-03-08 10:05:00,31.4,30.8,29.92,NE,41,11.9,13.0,96,-99.99,,,-99.99,PWS SA v1.10,2013-03-08 15:05:00,
2013-03-08 10:10:00,31.9,31.4,29.93,East,91,8.5,13.0,96,-99.99,,,-99.99,PWS SA v1.10,2013-03-08 15:10:00,
2013-03-08 10:15:00,31.8,31.2,29.92,NNE,29,3.4,11.0,96,-99.99,,,-99.99,PWS SA v1.10,2013-03-08 15:15:00,
2013-03-08 10:20:00,31.6,31.0,29.93,NNE,20,6.8,8.0,96,-99.99,,,-99.99,PWS SA v1.10,2013-03-08 15:20:00,
2013-03-08 10:30:00,31.1,30.3,29.95,NE,35,12.0,12.0,96,-99.99,,,-99.99,PWS SA v1.10,2013-03-08 15:30:00,
2013-03-08 10:35:00,31.8,31.1,29.93,NE,55,5.1,12.0,96,-99.99,,,-99.99,PWS SA v1.10,2013-03-08 15:35:00,
2013-03-08 10:45:00,31.9,31.1,29.94,NNE,20,3.4,8.0,95,-99.99,,,-99.99,PWS SA v1.10,2013-03-08 15:45:00,
2013-03-08 10:50:00,31.6,30.6,29.94,NNE,21,5.1,8.0,95,-99.99,,,-99.99,PWS SA v1.10,2013-03-08 15:50:00,
2013-03-08 10:55:00,31.3,30.9,29.94,NNE,28,6.8,10.0,96,-99.99,,,-99.99,PWS SA v1.10,2013-03-08 15:55:00,
2013-03-08 11:00:00,32.2,31.4,29.93,North,0,0.0,10.0,96,-99.99,,,-99.99,PWS SA v1.10,2013-03-08 16:00:00,
2013-03-08 11:05:00,31.4,30.9,29.94,NNE,23,5.1,10.0,95,-99.99,,,-99.99,PWS SA v1.10,2013-03-08 16:05:00,
2013-03-08 11:15:00,31.7,31.2,29.94,NE,42,6.8,8.0,96,-99.99,,,-99.99,PWS SA v1.10,2013-03-08 16:15:00,
2013-03-08 11:20:00,31.7,31.1,29.94,NNE,31,5.1,10.0,96,-99.99,,,-99.99,PWS SA v1.10,2013-03-08 16:20:00,
2013-03-08 11:30:00,31.9,31.5,29.94,NE,49,5.1,10.0,96,-99.99,,,-99.99,PWS SA v1.10,2013-03-08 16:30:00,
2013-03-08 11:35:00,31.7,31.4,29.94,North,10,3.4,8.0,96,-99.99,,,-99.99,PWS SA v1.10,2013-03-08 16:35:00,
2013-03-08 11:45:00,32.1,31.3,29.95,NE,34,3.4,18.0,96,-99.99,,,-99.99,PWS SA v1.10,2013-03-08 16:45:00,
2013-03-08 11:50:00,32.2,31.7,29.95,NNE,12,3.4,18.0,96,-99.99,,,-99.99,PWS SA v1.10,2013-03-08 16:50:00,
2013-03-08 12:00:00,32.3,31.8,29.95,NNW,338,3.4,5.0,96,-99.99,,,-99.99,PWS SA v1.10,2013-03-08 17:00:00,
2013-03-08 12:05:00,32.3,31.6,29.95,NE,54,8.5,8.5,95,-99.99,,,-99.99,PWS SA v1.10,2013-03-08 17:05:00,
2013-03-08 12:10:00,33.0,32.0,29.96,NE,53,3.4,8.0,95,-99.99,,,-99.99,PWS SA v1.10,2013-03-08 17:10:00,
2013-03-08 12:15:00,32.5,31.9,29.96,NE,48,10.2,10.2,95,-99.99,,,-99.99,PWS SA v1.10,2013-03-08 17:15:00,
2013-03-08 12:20:00,32.3,31.9,29.96,NNE,13,3.4,10.0,95,-99.99,,,-99.99,PWS SA v1.10,2013-03-08 17:20:00,
2013-03-08 12:25:00,32.5,31.5,29.96,NNE,21,10.2,10.2,95,-99.99,,,-99.99,PWS SA v1.10,2013-03-08 17:25:00,
2013-03-08 12:30:00,32.6,32.3,29.95,NE,37,5.1,10.0,96,-99.99,,,-99.99,PWS SA v1.10,2013-03-08 17:30:00,
2013-03-08 12:40:00,32.2,31.6,29.95,NNE,22,5.1,10.0,96,-99.99,,,-99.99,PWS SA v1.10,2013-03-08 17:40:00,
2013-03-08 12:50:00,32.7,32.3,29.95,ENE,75,3.4,10.0,97,-99.99,,,-99.99,PWS SA v1.10,2013-03-08 17:50:00,
2013-03-08 12:55:00,33.0,32.6,29.95,NE,44,1.7,10.0,97,-99.99,,,-99.99,PWS SA v1.10,2013-03-08 17:55:00,
2013-03-08 13:00:00,32.7,32.2,29.95,NE,46,6.8,10.0,97,-99.99,,,-99.99,PWS SA v1.10,2013-03-08 18:00:00,
2013-03-08 13:05:00,32.5,32.1,29.95,NNE,32,5.1,8.0,97,-99.99,,,-99.99,PWS SA v1.10,2013-03-08 18:05:00,
2013-03-08 13:10:00,32.9,32.3,29.95,NNE,23,5.1,10.0,97,-99.99,,,-99.99,PWS SA v1.10,2013-03-08 18:10:00,
2013-03-08 13:15:00,32.7,32.3,29.96,NNE,28,10.2,13.0,97,-99.99,,,-99.99,PWS SA v1.10,2013-03-08 18:15:00,
2013-03-08 13:20:00,32.7,32.5,29.95,NNE,27,5.1,13.0,97,-99.99,,,-99.99,PWS SA v1.10,2013-03-08 18:20:00,
2013-03-08 13:25:00,32.9,32.6,29.96,NNE,25,3.4,13.0,97,-99.99,,,-99.99,PWS SA v1.10,2013-03-08 18:25:00,
2013-03-08 13:30:00,33.0,32.5,29.96,North,4,3.4,12.0,96,-99.99,,,-99.99,PWS SA v1.10,2013-03-08 18:30:00,
2013-03-08 13:35:00,33.2,32.5,29.96,NNE,25,6.8,12.0,96,-99.99,,,-99.99,PWS SA v1.10,2013-03-08 18:35:00,
2013-03-08 13:45:00,33.3,33.0,29.95,NNW,346,5.1,10.0,97,-99.99,,,-99.99,PWS SA v1.10,2013-03-08 18:45:00,
2013-03-08 13:55:00,33.4,33.0,29.95,NE,47,10.2,10.2,97,-99.99,,,-99.99,PWS SA v1.10,2013-03-08 18:55:00,
2013-03-08 14:00:00,33.8,33.1,29.96,NNE,25,3.4,10.0,96,-99.99,,,-99.99,PWS SA v1.10,2013-03-08 19:00:00,
2013-03-08 14:05:00,33.7,33.0,29.95,NNE,29,10.2,10.2,96,-99.99,,,-99.99,PWS SA v1.10,2013-03-08 19:05:00,
2013-03-08 14:10:00,34.2,33.3,29.96,NNW,346,3.4,10.0,95,-99.99,,,-99.99,PWS SA v1.10,2013-03-08 19:10:00,
2013-03-08 14:15:00,34.6,33.4,29.95,North,0,0.0,10.0,94,-99.99,,,-99.99,PWS SA v1.10,2013-03-08 19:15:00,
2013-03-08 14:20:00,34.9,33.2,29.96,NNE,20,1.7,10.0,92,-99.99,,,-99.99,PWS SA v1.10,2013-03-08 19:20:00,
2013-03-08 14:25:00,34.5,32.7,29.96,NNE,29,12.0,12.0,92,-99.99,,,-99.99,PWS SA v1.10,2013-03-08 19:25:00,
2013-03-08 14:30:00,35.0,32.6,29.97,East,89,5.1,12.0,90,-99.99,,,-99.99,PWS SA v1.10,2013-03-08 19:30:00,
2013-03-08 14:35:00,35.2,32.4,29.97,NE,38,1.7,12.0,90,-99.99,,,-99.99,PWS SA v1.10,2013-03-08 19:35:00,
2013-03-08 14:40:00,34.9,32.3,29.97,NE,35,10.2,10.2,89,-99.99,,,-99.99,PWS SA v1.10,2013-03-08 19:40:00,
2013-03-08 14:45:00,35.3,32.1,29.96,NNE,33,5.1,10.0,87,-99.99,,,-99.99,PWS SA v1.10,2013-03-08 19:45:00,
2013-03-08 14:55:00,35.9,32.0,29.97,NNE,20,5.1,6.0,84,-99.99,,,-99.99,PWS SA v1.10,2013-03-08 19:55:00,
2013-03-08 15:05:00,35.8,31.6,29.97,NNW,336,5.1,15.0,84,-99.99,,,-99.99,PWS SA v1.10,2013-03-08 20:05:00,
2013-03-08 15:10:00,36.1,32.0,29.98,ENE,59,5.1,15.0,85,-99.99,,,-99.99,PWS SA v1.10,2013-03-08 20:10:00,
2013-03-08 15:15:00,35.5,32.1,29.98,NE,36,13.7,15.0,86,-99.99,,,-99.99,PWS SA v1.10,2013-03-08 20:15:00,
2013-03-08 15:20:00,35.5,32.4,29.98,ENE,63,6.8,13.0,88,-99.99,,,-99.99,PWS SA v1.10,2013-03-08 20:20:00,
2013-03-08 15:30:00,35.2,33.3,29.99,NNE,18,10.2,10.2,91,-99.99,,,-99.99,PWS SA v1.10,2013-03-08 20:30:00,
2013-03-08 15:35:00,35.0,33.2,29.99,NE,49,8.5,10.0,93,-99.99,,,-99.99,PWS SA v1.10,2013-03-08 20:35:00,
2013-03-08 15:40:00,35.0,33.2,29.99,NNE,20,6.8,10.0,93,-99.99,,,-99.99,PWS SA v1.10,2013-03-08 20:40:00,
2013-03-08 15:45:00,35.2,33.6,29.99,NNE,28,5.1,13.0,93,-99.99,,,-99.99,PWS SA v1.10,2013-03-08 20:45:00,
2013-03-08 15:50:00,35.2,33.1,29.99,NE,38,10.2,13.0,92,-99.99,,,-99.99,PWS SA v1.10,2013-03-08 20:50:00,
2013-03-08 15:55:00,35.9,33.3,29.99,NE,43,1.7,13.0,90,-99.99,,,-99.99,PWS SA v1.10,2013-03-08 20:55:00,
2013-03-08 16:00:00,36.2,32.7,29.99,NNE,27,6.8,12.0,88,-99.99,,,-99.99,PWS SA v1.10,2013-03-08 21:00:00,
2013-03-08 16:05:00,36.6,31.9,29.99,NE,39,6.8,10.0,84,-99.99,,,-99.99,PWS SA v1.10,2013-03-08 21:05:00,
2013-03-08 16:15:00,37.1,32.2,30.00,NNE,20,3.4,10.0,81,-99.99,,,-99.99,PWS SA v1.10,2013-03-08 21:15:00,
2013-03-08 16:20:00,37.2,31.0,30.00,NNE,25,8.5,13.0,79,-99.99,,,-99.99,PWS SA v1.10,2013-03-08 21:20:00,
2013-03-08 16:25:00,37.7,31.3,30.00,NNE,30,6.8,13.0,77,-99.99,,,-99.99,PWS SA v1.10,2013-03-08 21:25:00,
2013-03-08 16:30:00,38.1,30.8,30.00,NE,37,6.8,13.0,75,-99.99,,,-99.99,PWS SA v1.10,2013-03-08 21:30:00,
2013-03-08 16:40:00,37.7,31.6,30.01,NE,53,5.1,10.0,78,-99.99,,,-99.99,PWS SA v1.10,2013-03-08 21:40:00,
2013-03-08 16:45:00,38.6,30.8,30.01,NE,44,12.0,12.0,74,-99.99,,,-99.99,PWS SA v1.10,2013-03-08 21:45:00,
2013-03-08 16:50:00,38.7,30.5,30.01,NE,42,8.5,12.0,72,-99.99,,,-99.99,PWS SA v1.10,2013-03-08 21:50:00,
2013-03-08 16:55:00,38.9,30.0,30.01,NE,38,11.9,12.0,71,-99.99,,,-99.99,PWS SA v1.10,2013-03-08 21:55:00,
2013-03-08 17:00:00,39.2,29.8,30.02,ENE,62,10.2,11.0,69,-99.99,,,-99.99,PWS SA v1.10,2013-03-08 22:00:00,
2013-03-08 17:05:00,39.5,29.6,30.01,North,354,3.4,11.0,68,-99.99,,,-99.99,PWS SA v1.10,2013-03-08 22:05:00,
2013-03-08 17:15:00,39.8,29.6,30.02,NE,52,3.4,13.0,66,-99.99,,,-99.99,PWS SA v1.10,2013-03-08 22:15:00,
2013-03-08 17:20:00,39.7,29.8,30.01,ENE,63,1.7,13.0,67,-99.99,,,-99.99,PWS SA v1.10,2013-03-08 22:20:00,
2013-03-08 17:25:00,39.8,29.8,30.02,NE,39,3.4,5.0,66,-99.99,,,-99.99,PWS SA v1.10,2013-03-08 22:25:00,
2013-03-08 17:30:00,39.6,29.8,30.02,NNE,21,3.4,5.0,67,-99.99,,,-99.99,PWS SA v1.10,2013-03-08 22:30:00,
2013-03-08 17:35:00,39.6,30.6,30.02,NNE,32,5.1,5.1,69,-99.99,,,-99.99,PWS SA v1.10,2013-03-08 22:35:00,
2013-03-08 17:45:00,39.2,30.5,30.02,NE,37,3.4,5.0,70,-99.99,,,-99.99,PWS SA v1.10,2013-03-08 22:45:00,
2013-03-08 17:50:00,39.1,32.0,30.03,North,0,0.0,3.0,74,-99.99,,,-99.99,PWS SA v1.10,2013-03-08 22:50:00,
2013-03-08 17:55:00,38.9,32.2,30.03,North,0,0.0,3.0,76,-99.99,,,-99.99,PWS SA v1.10,2013-03-08 22:55:00,
2013-03-08 18:00:00,38.8,32.8,30.03,North,0,0.0,3.0,79,-99.99,,,-99.99,PWS SA v1.10,2013-03-08 23:00:00,
2013-03-08 18:05:00,38.3,32.5,30.04,NNE,33,1.7,1.7,79,-99.99,,,-99.99,PWS SA v1.10,2013-03-08 23:05:00,
2013-03-08 18:10:00,38.1,32.2,30.03,North,0,0.0,5.0,79,-99.99,,,-99.99,PWS SA v1.10,2013-03-08 23:10:00,
2013-03-08 18:15:00,37.9,33.3,30.03,NE,48,1.7,5.0,83,-99.99,,,-99.99,PWS SA v1.10,2013-03-08 23:15:00,
2013-03-08 18:20:00,38.0,33.7,30.03,North,0,0.0,5.0,85,-99.99,,,-99.99,PWS SA v1.10,2013-03-08 23:20:00,
2013-03-08 18:25:00,38.0,33.8,30.03,North,0,0.0,3.0,85,-99.99,,,-99.99,PWS SA v1.10,2013-03-08 23:25:00,
2013-03-08 18:30:00,37.7,33.1,30.03,North,0,0.0,1.0,84,-99.99,,,-99.99,PWS SA v1.10,2013-03-08 23:30:00,
2013-03-08 18:35:00,37.4,33.5,30.04,North,0,0.0,1.0,85,-99.99,,,-99.99,PWS SA v1.10,2013-03-08 23:35:00,
2013-03-08 18:40:00,37.4,32.9,30.04,NE,35,1.7,1.7,83,-99.99,,,-99.99,PWS SA v1.10,2013-03-08 23:40:00,
2013-03-08 18:45:00,37.6,32.4,30.03,North,0,0.0,1.0,81,-99.99,,,-99.99,PWS SA v1.10,2013-03-08 23:45:00,
2013-03-08 18:50:00,37.7,32.7,30.03,North,0,0.0,3.0,82,-99.99,,,-99.99,PWS SA v1.10,2013-03-08 23:50:00,
2013-03-08 19:00:00,37.6,31.9,30.04,NNE,22,1.7,3.0,79,-99.99,,,-99.99,PWS SA v1.10,2013-03-09 00:00:00,
2013-03-08 19:05:00,37.9,31.8,30.04,NNE,29,1.7,3.0,79,-99.99,,,-99.99,PWS SA v1.10,2013-03-09 00:05:00,
2013-03-08 19:10:00,37.9,31.7,30.04,North,0,0.0,5.0,77,-99.99,,,-99.99,PWS SA v1.10,2013-03-09 00:10:00,
2013-03-08 19:15:00,38.1,31.2,30.04,NNE,27,3.4,5.0,75,-99.99,,,-99.99,PWS SA v1.10,2013-03-09 00:15:00,
2013-03-08 19:25:00,38.4,30.9,30.04,NNE,22,3.4,5.0,73,-99.99,,,-99.99,PWS SA v1.10,2013-03-09 00:25:00,
2013-03-08 19:35:00,39.3,29.8,30.04,NNE,28,3.4,5.0,68,-99.99,,,-99.99,PWS SA v1.10,2013-03-09 00:35:00,
2013-03-08 19:40:00,39.7,29.0,30.05,NNE,20,6.8,6.8,66,-99.99,,,-99.99,PWS SA v1.10,2013-03-09 00:40:00,
2013-03-08 19:45:00,39.5,30.0,30.05,North,11,3.4,6.0,67,-99.99,,,-99.99,PWS SA v1.10,2013-03-09 00:45:00,
2013-03-08 19:50:00,39.8,29.6,30.05,NNE,24,3.4,6.0,66,-99.99,,,-99.99,PWS SA v1.10,2013-03-09 00:50:00,
2013-03-08 20:00:00,39.9,29.2,30.05,NNE,19,3.4,6.0,65,-99.99,,,-99.99,PWS SA v1.10,2013-03-09 01:00:00,
2013-03-08 20:10:00,39.8,29.4,30.06,NE,45,3.4,5.0,65,-99.99,,,-99.99,PWS SA v1.10,2013-03-09 01:10:00,
2013-03-08 20:20:00,39.7,28.7,30.06,NNE,19,5.1,5.1,64,-99.99,,,-99.99,PWS SA v1.10,2013-03-09 01:20:00,
2013-03-08 20:25:00,39.7,28.1,30.06,NNE,24,3.4,6.0,63,-99.99,,,-99.99,PWS SA v1.10,2013-03-09 01:25:00,
2013-03-08 20:35:00,39.9,27.8,30.06,NE,44,6.8,10.0,61,-99.99,,,-99.99,PWS SA v1.10,2013-03-09 01:35:00,
2013-03-08 20:40:00,40.0,27.1,30.07,NNE,19,6.8,10.0,60,-99.99,,,-99.99,PWS SA v1.10,2013-03-09 01:40:00,
2013-03-08 20:50:00,40.0,27.4,30.07,NNE,32,5.1,6.0,60,-99.99,,,-99.99,PWS SA v1.10,2013-03-09 01:50:00,
2013-03-08 20:55:00,39.9,27.1,30.06,NNE,30,5.1,8.0,59,-99.99,,,-99.99,PWS SA v1.10,2013-03-09 01:55:00,
2013-03-08 21:00:00,39.9,26.6,30.07,NE,35,6.8,8.0,59,-99.99,,,-99.99,PWS SA v1.10,2013-03-09 02:00:00,
2013-03-08 21:10:00,40.0,26.8,30.07,NE,41,1.7,8.0,59,-99.99,,,-99.99,PWS SA v1.10,2013-03-09 02:10:00,
2013-03-08 21:15:00,40.0,26.7,30.07,NNE,28,1.7,5.0,58,-99.99,,,-99.99,PWS SA v1.10,2013-03-09 02:15:00,
2013-03-08 21:20:00,39.9,26.3,30.07,NNE,19,1.7,6.0,58,-99.99,,,-99.99,PWS SA v1.10,2013-03-09 02:20:00,
2013-03-08 21:25:00,39.9,26.9,30.08,North,0,0.0,8.0,59,-99.99,,,-99.99,PWS SA v1.10,2013-03-09 02:25:00,
2013-03-08 21:30:00,39.7,26.5,30.08,ENE,62,1.7,8.0,58,-99.99,,,-99.99,PWS SA v1.10,2013-03-09 02:30:00,
2013-03-08 21:35:00,39.3,26.9,30.07,NNE,26,3.4,8.0,59,-99.99,,,-99.99,PWS SA v1.10,2013-03-09 02:35:00,
2013-03-08 21:45:00,39.0,26.5,30.08,NE,45,8.5,8.5,60,-99.99,,,-99.99,PWS SA v1.10,2013-03-09 02:45:00,
2013-03-08 21:50:00,39.0,26.7,30.08,NNE,31,1.7,8.0,60,-99.99,,,-99.99,PWS SA v1.10,2013-03-09 02:50:00,
2013-03-08 21:55:00,39.0,26.8,30.08,NE,37,3.4,8.0,60,-99.99,,,-99.99,PWS SA v1.10,2013-03-09 02:55:00,
2013-03-08 22:00:00,38.7,26.9,30.09,NNE,25,1.7,5.0,60,-99.99,,,-99.99,PWS SA v1.10,2013-03-09 03:00:00,
2013-03-08 22:05:00,38.5,27.0,30.09,NNE,20,3.4,5.0,62,-99.99,,,-99.99,PWS SA v1.10,2013-03-09 03:05:00,
2013-03-08 22:10:00,38.4,26.5,30.08,NNE,24,1.7,5.0,61,-99.99,,,-99.99,PWS SA v1.10,2013-03-09 03:10:00,
2013-03-08 22:15:00,38.4,26.5,30.09,NNE,19,1.7,5.0,61,-99.99,,,-99.99,PWS SA v1.10,2013-03-09 03:15:00,
2013-03-08 22:20:00,38.4,25.9,30.08,NNE,28,5.1,5.1,60,-99.99,,,-99.99,PWS SA v1.10,2013-03-09 03:20:00,
2013-03-08 22:30:00,38.4,25.7,30.08,NNE,22,3.4,8.0,59,-99.99,,,-99.99,PWS SA v1.10,2013-03-09 03:30:00,
2013-03-08 22:35:00,38.6,25.5,30.09,NNE,28,1.7,8.0,59,-99.99,,,-99.99,PWS SA v1.10,2013-03-09 03:35:00,
2013-03-08 22:40:00,38.7,26.1,30.09,NNE,25,1.7,8.0,59,-99.99,,,-99.99,PWS SA v1.10,2013-03-09 03:40:00,
2013-03-08 22:45:00,38.5,26.1,30.09,North,0,0.0,6.0,60,-99.99,,,-99.99,PWS SA v1.10,2013-03-09 03:45:00,
2013-03-08 22:50:00,38.5,26.4,30.09,NNE,28,3.4,6.0,60,-99.99,,,-99.99,PWS SA v1.10,2013-03-09 03:50:00,
2013-03-08 22:55:00,38.1,26.3,30.09,NNE,17,3.4,6.0,61,-99.99,,,-99.99,PWS SA v1.10,2013-03-09 03:55:00,
2013-03-08 23:00:00,38.0,25.7,30.08,NNE,20,5.1,5.1,61,-99.99,,,-99.99,PWS SA v1.10,2013-03-09 04:00:00,
2013-03-08 23:10:00,38.1,25.7,30.08,NNE,32,5.1,5.1,60,-99.99,,,-99.99,PWS SA v1.10,2013-03-09 04:10:00,
2013-03-08 23:15:00,38.0,25.9,30.08,NNE,19,5.1,6.0,60,-99.99,,,-99.99,PWS SA v1.10,2013-03-09 04:15:00,
2013-03-08 23:20:00,37.7,26.0,30.08,North,0,0.0,6.0,61,-99.99,,,-99.99,PWS SA v1.10,2013-03-09 04:20:00,
2013-03-08 23:25:00,37.7,26.0,30.08,North,10,1.7,6.0,61,-99.99,,,-99.99,PWS SA v1.10,2013-03-09 04:25:00,
2013-03-08 23:30:00,37.7,26.1,30.08,North,0,0.0,5.0,61,-99.99,,,-99.99,PWS SA v1.10,2013-03-09 04:30:00,
2013-03-08 23:35:00,37.6,26.9,30.09,North,0,0.0,5.0,64,-99.99,,,-99.99,PWS SA v1.10,2013-03-09 04:35:00,
2013-03-08 23:40:00,37.4,27.5,30.09,North,0,0.0,1.0,66,-99.99,,,-99.99,PWS SA v1.10,2013-03-09 04:40:00,
2013-03-08 23:45:00,37.0,27.4,30.09,North,0,0.0,0.0,67,-99.99,,,-99.99,PWS SA v1.10,2013-03-09 04:45:00,
2013-03-08 23:50:00,36.5,27.8,30.09,North,0,0.0,0.0,70,-99.99,,,-99.99,PWS SA v1.10,2013-03-09 04:50:00,
2013-03-08 23:55:00,36.1,27.1,30.09,North,0,0.0,1.0,68,-99.99,,,-99.99,PWS SA v1.10,2013-03-09 04:55:00,